sensor_id;sensor_type;location;lat;lon;timestamp;temperature;humidity
15013;DHT22;7603;49.432;11.418;2023-03-01T00:00:40;-3.40;99.90
15013;DHT22;7603;49.432;11.418;2023-03-01T00:03:06;-3.40;99.90
15013;DHT22;7603;49.432;11.418;2023-03-01T00:05:32;-3.40;99.90
15013;DHT22;7603;49.432;11.418;2023-03-01T00:07:58;-3.40;99.90
15013;DHT22;7603;49.432;11.418;2023-03-01T00:10:23;-3.30;99.90
15013;DHT22;7603;49.432;11.418;2023-03-01T00:12:49;-3.30;99.90
15013;DHT22;7603;49.432;11.418;2023-03-01T00:15:15;-3.30;99.90
15013;DHT22;7603;49.432;11.418;2023-03-01T00:17:40;-3.40;99.90
15013;DHT22;7603;49.432;11.418;2023-03-01T00:20:07;-3.30;99.90
15013;DHT22;7603;49.432;11.418;2023-03-01T00:22:36;-3.30;99.90
15013;DHT22;7603;49.432;11.418;2023-03-01T00:25:02;-3.40;99.90
15013;DHT22;7603;49.432;11.418;2023-03-01T00:27:28;-3.40;99.90
15013;DHT22;7603;49.432;11.418;2023-03-01T00:29:54;-3.40;99.90
15013;DHT22;7603;49.432;11.418;2023-03-01T00:32:19;-3.40;99.90
15013;DHT22;7603;49.432;11.418;2023-03-01T00:34:46;-3.40;99.90
15013;DHT22;7603;49.432;11.418;2023-03-01T00:37:20;-3.40;99.90
15013;DHT22;7603;49.432;11.418;2023-03-01T00:39:46;-3.40;99.90
15013;DHT22;7603;49.432;11.418;2023-03-01T00:42:12;-3.40;99.90
15013;DHT22;7603;49.432;11.418;2023-03-01T00:44:37;-3.40;99.90
15013;DHT22;7603;49.432;11.418;2023-03-01T00:47:03;-3.40;99.90
15013;DHT22;7603;49.432;11.418;2023-03-01T00:49:29;-3.40;99.90
15013;DHT22;7603;49.432;11.418;2023-03-01T00:51:54;-3.40;99.90
15013;DHT22;7603;49.432;11.418;2023-03-01T00:54:20;-3.40;99.90
15013;DHT22;7603;49.432;11.418;2023-03-01T00:56:45;-3.40;99.90
15013;DHT22;7603;49.432;11.418;2023-03-01T00:59:11;-3.50;99.90
15013;DHT22;7603;49.432;11.418;2023-03-01T01:01:36;-3.40;99.90
15013;DHT22;7603;49.432;11.418;2023-03-01T01:04:11;-3.50;99.90
15013;DHT22;7603;49.432;11.418;2023-03-01T01:06:39;-3.50;99.90
15013;DHT22;7603;49.432;11.418;2023-03-01T01:09:08;-3.60;99.90
15013;DHT22;7603;49.432;11.418;2023-03-01T01:11:34;-3.70;99.90
15013;DHT22;7603;49.432;11.418;2023-03-01T01:14:03;-3.70;99.90
15013;DHT22;7603;49.432;11.418;2023-03-01T01:16:29;-3.70;99.90
15013;DHT22;7603;49.432;11.418;2023-03-01T01:18:55;-3.70;99.90
15013;DHT22;7603;49.432;11.418;2023-03-01T01:21:23;-3.70;99.90
15013;DHT22;7603;49.432;11.418;2023-03-01T01:23:50;-3.80;99.90
15013;DHT22;7603;49.432;11.418;2023-03-01T01:28:44;-3.80;99.90
15013;DHT22;7603;49.432;11.418;2023-03-01T01:31:09;-3.90;99.90
15013;DHT22;7603;49.432;11.418;2023-03-01T01:33:36;-3.90;99.90
15013;DHT22;7603;49.432;11.418;2023-03-01T01:36:03;-3.90;99.90
15013;DHT22;7603;49.432;11.418;2023-03-01T01:38:29;-4.00;99.90
15013;DHT22;7603;49.432;11.418;2023-03-01T01:40:55;-4.00;99.90
15013;DHT22;7603;49.432;11.418;2023-03-01T01:43:23;-4.10;99.90
15013;DHT22;7603;49.432;11.418;2023-03-01T01:45:50;-4.10;99.90
15013;DHT22;7603;49.432;11.418;2023-03-01T01:48:21;-4.10;99.90
15013;DHT22;7603;49.432;11.418;2023-03-01T01:50:59;-4.20;99.90
15013;DHT22;7603;49.432;11.418;2023-03-01T01:53:26;-4.20;99.90
15013;DHT22;7603;49.432;11.418;2023-03-01T01:55:55;-4.20;99.90
15013;DHT22;7603;49.432;11.418;2023-03-01T01:58:24;-4.20;99.90
15013;DHT22;7603;49.432;11.418;2023-03-01T02:00:51;-4.20;99.90
15013;DHT22;7603;49.432;11.418;2023-03-01T02:03:27;-4.20;99.90
15013;DHT22;7603;49.432;11.418;2023-03-01T02:08:28;-4.30;99.90
15013;DHT22;7603;49.432;11.418;2023-03-01T02:10:56;-4.30;99.90
15013;DHT22;7603;49.432;11.418;2023-03-01T02:13:22;-4.20;99.90
15013;DHT22;7603;49.432;11.418;2023-03-01T02:15:48;-4.20;99.90
15013;DHT22;7603;49.432;11.418;2023-03-01T02:18:17;-4.10;99.90
15013;DHT22;7603;49.432;11.418;2023-03-01T02:23:28;-4.10;99.90
15013;DHT22;7603;49.432;11.418;2023-03-01T02:28:45;-4.20;99.90
15013;DHT22;7603;49.432;11.418;2023-03-01T02:31:16;-4.20;99.90
15013;DHT22;7603;49.432;11.418;2023-03-01T02:34:02;-4.20;99.90
15013;DHT22;7603;49.432;11.418;2023-03-01T02:36:33;-4.20;99.90
15013;DHT22;7603;49.432;11.418;2023-03-01T02:39:02;-4.20;99.90
15013;DHT22;7603;49.432;11.418;2023-03-01T02:41:30;-4.30;99.90
15013;DHT22;7603;49.432;11.418;2023-03-01T02:43:57;-4.30;99.90
15013;DHT22;7603;49.432;11.418;2023-03-01T02:46:24;-4.20;99.90
15013;DHT22;7603;49.432;11.418;2023-03-01T02:48:54;-4.20;99.90
15013;DHT22;7603;49.432;11.418;2023-03-01T02:54:22;-4.20;99.90
15013;DHT22;7603;49.432;11.418;2023-03-01T02:56:50;-4.20;99.90
15013;DHT22;7603;49.432;11.418;2023-03-01T02:59:24;-4.20;99.90
15013;DHT22;7603;49.432;11.418;2023-03-01T03:01:52;-4.20;99.90
15013;DHT22;7603;49.432;11.418;2023-03-01T03:04:18;-4.20;99.90
15013;DHT22;7603;49.432;11.418;2023-03-01T03:06:47;-4.20;99.90
15013;DHT22;7603;49.432;11.418;2023-03-01T03:09:14;-4.20;99.90
15013;DHT22;7603;49.432;11.418;2023-03-01T03:11:40;-4.20;99.90
15013;DHT22;7603;49.432;11.418;2023-03-01T03:14:10;-4.30;99.90
15013;DHT22;7603;49.432;11.418;2023-03-01T03:16:42;-4.20;99.90
15013;DHT22;7603;49.432;11.418;2023-03-01T03:19:08;-4.10;99.90
15013;DHT22;7603;49.432;11.418;2023-03-01T03:21:34;-4.10;99.90
15013;DHT22;7603;49.432;11.418;2023-03-01T03:24:00;-4.10;99.90
15013;DHT22;7603;49.432;11.418;2023-03-01T03:26:26;-4.10;99.90
15013;DHT22;7603;49.432;11.418;2023-03-01T03:28:51;-4.10;99.90
15013;DHT22;7603;49.432;11.418;2023-03-01T03:31:17;-4.10;99.90
15013;DHT22;7603;49.432;11.418;2023-03-01T03:33:43;-4.10;99.90
15013;DHT22;7603;49.432;11.418;2023-03-01T03:36:09;-4.10;99.90
15013;DHT22;7603;49.432;11.418;2023-03-01T03:38:39;-4.20;99.90
15013;DHT22;7603;49.432;11.418;2023-03-01T03:41:07;-4.20;99.90
15013;DHT22;7603;49.432;11.418;2023-03-01T03:43:35;-4.20;99.90
15013;DHT22;7603;49.432;11.418;2023-03-01T03:46:02;-4.10;99.90
15013;DHT22;7603;49.432;11.418;2023-03-01T03:48:36;-4.20;99.90
15013;DHT22;7603;49.432;11.418;2023-03-01T03:51:02;-4.20;99.90
15013;DHT22;7603;49.432;11.418;2023-03-01T03:53:30;-4.20;99.90
15013;DHT22;7603;49.432;11.418;2023-03-01T03:55:56;-4.10;99.90
15013;DHT22;7603;49.432;11.418;2023-03-01T03:58:23;-4.10;99.90
15013;DHT22;7603;49.432;11.418;2023-03-01T04:00:52;-4.10;99.90
15013;DHT22;7603;49.432;11.418;2023-03-01T04:03:18;-4.00;99.90
15013;DHT22;7603;49.432;11.418;2023-03-01T04:05:46;-4.10;99.90
15013;DHT22;7603;49.432;11.418;2023-03-01T04:08:13;-4.10;99.90
15013;DHT22;7603;49.432;11.418;2023-03-01T04:10:44;-4.10;99.90
15013;DHT22;7603;49.432;11.418;2023-03-01T04:13:16;-4.20;99.90
15013;DHT22;7603;49.432;11.418;2023-03-01T04:15:41;-4.20;99.90
15013;DHT22;7603;49.432;11.418;2023-03-01T04:18:14;-4.10;99.90
15013;DHT22;7603;49.432;11.418;2023-03-01T04:20:41;-4.10;99.90
15013;DHT22;7603;49.432;11.418;2023-03-01T04:23:13;-4.00;99.90
15013;DHT22;7603;49.432;11.418;2023-03-01T04:25:45;-4.00;99.90
15013;DHT22;7603;49.432;11.418;2023-03-01T04:28:11;-4.00;99.90
15013;DHT22;7603;49.432;11.418;2023-03-01T04:30:38;-4.00;99.90
15013;DHT22;7603;49.432;11.418;2023-03-01T04:33:08;-3.90;99.90
15013;DHT22;7603;49.432;11.418;2023-03-01T04:35:35;-4.10;99.90
15013;DHT22;7603;49.432;11.418;2023-03-01T04:38:02;-3.90;99.90
15013;DHT22;7603;49.432;11.418;2023-03-01T04:40:27;-3.80;99.90
15013;DHT22;7603;49.432;11.418;2023-03-01T04:42:53;-3.80;99.90
15013;DHT22;7603;49.432;11.418;2023-03-01T04:45:19;-3.80;99.90
15013;DHT22;7603;49.432;11.418;2023-03-01T04:47:45;-3.70;99.90
15013;DHT22;7603;49.432;11.418;2023-03-01T04:50:14;-3.70;99.90
15013;DHT22;7603;49.432;11.418;2023-03-01T04:52:40;-3.70;99.90
15013;DHT22;7603;49.432;11.418;2023-03-01T04:55:07;-3.70;99.90
15013;DHT22;7603;49.432;11.418;2023-03-01T04:57:33;-3.70;99.90
15013;DHT22;7603;49.432;11.418;2023-03-01T04:59:58;-3.70;99.90
15013;DHT22;7603;49.432;11.418;2023-03-01T05:02:24;-3.70;99.90
15013;DHT22;7603;49.432;11.418;2023-03-01T05:04:50;-3.60;99.90
15013;DHT22;7603;49.432;11.418;2023-03-01T05:07:15;-3.70;99.90
15013;DHT22;7603;49.432;11.418;2023-03-01T05:09:48;-3.70;99.90
15013;DHT22;7603;49.432;11.418;2023-03-01T05:12:14;-3.70;99.90
15013;DHT22;7603;49.432;11.418;2023-03-01T05:14:40;-3.80;99.90
15013;DHT22;7603;49.432;11.418;2023-03-01T05:17:07;-3.80;99.90
15013;DHT22;7603;49.432;11.418;2023-03-01T05:19:32;-3.80;99.90
15013;DHT22;7603;49.432;11.418;2023-03-01T05:21:58;-3.80;99.90
15013;DHT22;7603;49.432;11.418;2023-03-01T05:24:27;-3.80;99.90
15013;DHT22;7603;49.432;11.418;2023-03-01T05:26:53;-3.80;99.90
15013;DHT22;7603;49.432;11.418;2023-03-01T05:29:20;-3.70;99.90
15013;DHT22;7603;49.432;11.418;2023-03-01T05:32:00;-3.70;99.90
15013;DHT22;7603;49.432;11.418;2023-03-01T05:34:30;-3.70;99.90
15013;DHT22;7603;49.432;11.418;2023-03-01T05:36:56;-3.70;99.90
15013;DHT22;7603;49.432;11.418;2023-03-01T05:39:24;-3.70;99.90
15013;DHT22;7603;49.432;11.418;2023-03-01T05:41:55;-3.70;99.90
15013;DHT22;7603;49.432;11.418;2023-03-01T05:44:21;-3.60;99.90
15013;DHT22;7603;49.432;11.418;2023-03-01T05:46:47;-3.70;99.90
15013;DHT22;7603;49.432;11.418;2023-03-01T05:49:14;-3.70;99.90
15013;DHT22;7603;49.432;11.418;2023-03-01T05:51:42;-3.70;99.90
15013;DHT22;7603;49.432;11.418;2023-03-01T05:54:11;-3.70;99.90
15013;DHT22;7603;49.432;11.418;2023-03-01T05:56:37;-3.70;99.90
15013;DHT22;7603;49.432;11.418;2023-03-01T05:59:04;-3.70;99.90
15013;DHT22;7603;49.432;11.418;2023-03-01T06:01:31;-3.70;99.90
15013;DHT22;7603;49.432;11.418;2023-03-01T06:03:57;-3.70;99.90
15013;DHT22;7603;49.432;11.418;2023-03-01T06:06:23;-3.60;99.90
15013;DHT22;7603;49.432;11.418;2023-03-01T06:08:50;-3.60;99.90
15013;DHT22;7603;49.432;11.418;2023-03-01T06:11:15;-3.60;99.90
15013;DHT22;7603;49.432;11.418;2023-03-01T06:13:43;-3.60;99.90
15013;DHT22;7603;49.432;11.418;2023-03-01T06:16:08;-3.60;99.90
15013;DHT22;7603;49.432;11.418;2023-03-01T06:18:35;-3.50;99.90
15013;DHT22;7603;49.432;11.418;2023-03-01T06:21:01;-3.40;99.90
15013;DHT22;7603;49.432;11.418;2023-03-01T06:23:27;-3.40;99.90
15013;DHT22;7603;49.432;11.418;2023-03-01T06:25:52;-3.40;99.90
15013;DHT22;7603;49.432;11.418;2023-03-01T06:28:18;-3.40;99.90
15013;DHT22;7603;49.432;11.418;2023-03-01T06:30:44;-3.40;99.90
15013;DHT22;7603;49.432;11.418;2023-03-01T06:33:09;-3.40;99.90
15013;DHT22;7603;49.432;11.418;2023-03-01T06:35:35;-3.40;99.90
15013;DHT22;7603;49.432;11.418;2023-03-01T06:38:03;-3.30;99.90
15013;DHT22;7603;49.432;11.418;2023-03-01T06:40:30;-3.20;99.90
15013;DHT22;7603;49.432;11.418;2023-03-01T06:42:56;-3.20;99.90
15013;DHT22;7603;49.432;11.418;2023-03-01T06:45:22;-3.10;99.90
15013;DHT22;7603;49.432;11.418;2023-03-01T06:47:48;-3.10;99.90
15013;DHT22;7603;49.432;11.418;2023-03-01T06:50:14;-3.00;99.90
15013;DHT22;7603;49.432;11.418;2023-03-01T06:52:40;-2.90;99.90
15013;DHT22;7603;49.432;11.418;2023-03-01T06:55:06;-2.90;99.90
15013;DHT22;7603;49.432;11.418;2023-03-01T06:57:32;-2.80;99.90
15013;DHT22;7603;49.432;11.418;2023-03-01T06:59:58;-2.70;99.90
15013;DHT22;7603;49.432;11.418;2023-03-01T07:02:24;-2.60;99.90
15013;DHT22;7603;49.432;11.418;2023-03-01T07:04:50;-2.50;99.90
15013;DHT22;7603;49.432;11.418;2023-03-01T07:07:17;-2.40;99.90
15013;DHT22;7603;49.432;11.418;2023-03-01T07:09:44;-2.30;99.90
15013;DHT22;7603;49.432;11.418;2023-03-01T07:12:10;-2.20;99.90
15013;DHT22;7603;49.432;11.418;2023-03-01T07:14:35;-2.10;99.90
15013;DHT22;7603;49.432;11.418;2023-03-01T07:17:01;-2.00;99.90
15013;DHT22;7603;49.432;11.418;2023-03-01T07:19:27;-1.90;99.90
15013;DHT22;7603;49.432;11.418;2023-03-01T07:21:52;-1.80;99.90
15013;DHT22;7603;49.432;11.418;2023-03-01T07:24:18;-1.70;99.90
15013;DHT22;7603;49.432;11.418;2023-03-01T07:26:44;-1.60;99.90
15013;DHT22;7603;49.432;11.418;2023-03-01T07:29:10;-1.50;99.90
15013;DHT22;7603;49.432;11.418;2023-03-01T07:31:36;-1.40;99.90
15013;DHT22;7603;49.432;11.418;2023-03-01T07:34:02;-1.20;99.90
15013;DHT22;7603;49.432;11.418;2023-03-01T07:36:28;-1.10;99.90
15013;DHT22;7603;49.432;11.418;2023-03-01T07:38:53;-1.00;99.90
15013;DHT22;7603;49.432;11.418;2023-03-01T07:41:21;-0.90;99.90
15013;DHT22;7603;49.432;11.418;2023-03-01T07:43:46;-0.70;99.90
15013;DHT22;7603;49.432;11.418;2023-03-01T07:46:12;-0.60;99.90
15013;DHT22;7603;49.432;11.418;2023-03-01T07:48:38;-0.60;99.90
15013;DHT22;7603;49.432;11.418;2023-03-01T07:51:05;-0.50;99.90
15013;DHT22;7603;49.432;11.418;2023-03-01T07:53:32;-0.30;99.90
15013;DHT22;7603;49.432;11.418;2023-03-01T07:58:34;-0.10;99.90
15013;DHT22;7603;49.432;11.418;2023-03-01T08:01:03;0.10;99.90
15013;DHT22;7603;49.432;11.418;2023-03-01T08:03:29;0.20;99.90
15013;DHT22;7603;49.432;11.418;2023-03-01T08:05:55;0.30;99.90
15013;DHT22;7603;49.432;11.418;2023-03-01T08:08:21;0.40;99.90
15013;DHT22;7603;49.432;11.418;2023-03-01T08:10:46;0.50;99.90
15013;DHT22;7603;49.432;11.418;2023-03-01T08:13:12;0.70;99.90
15013;DHT22;7603;49.432;11.418;2023-03-01T08:15:38;0.90;99.90
15013;DHT22;7603;49.432;11.418;2023-03-01T08:18:03;1.20;99.90
15013;DHT22;7603;49.432;11.418;2023-03-01T08:20:29;1.50;99.90
15013;DHT22;7603;49.432;11.418;2023-03-01T08:22:54;1.90;99.90
15013;DHT22;7603;49.432;11.418;2023-03-01T08:25:20;2.30;99.90
15013;DHT22;7603;49.432;11.418;2023-03-01T08:27:45;2.60;99.90
15013;DHT22;7603;49.432;11.418;2023-03-01T08:30:12;3.00;99.90
15013;DHT22;7603;49.432;11.418;2023-03-01T08:32:39;3.40;99.90
15013;DHT22;7603;49.432;11.418;2023-03-01T08:35:05;3.70;99.90
15013;DHT22;7603;49.432;11.418;2023-03-01T08:37:31;4.10;99.90
15013;DHT22;7603;49.432;11.418;2023-03-01T08:39:59;4.60;99.90
15013;DHT22;7603;49.432;11.418;2023-03-01T08:42:25;5.00;99.90
15013;DHT22;7603;49.432;11.418;2023-03-01T08:44:51;5.40;98.30
15013;DHT22;7603;49.432;11.418;2023-03-01T08:47:17;5.70;97.50
15013;DHT22;7603;49.432;11.418;2023-03-01T08:49:42;6.20;95.30
15013;DHT22;7603;49.432;11.418;2023-03-01T08:52:08;6.60;93.20
15013;DHT22;7603;49.432;11.418;2023-03-01T08:54:33;7.00;92.40
15013;DHT22;7603;49.432;11.418;2023-03-01T08:57:01;7.60;91.00
15013;DHT22;7603;49.432;11.418;2023-03-01T08:59:27;8.30;90.30
15013;DHT22;7603;49.432;11.418;2023-03-01T09:01:55;9.00;87.60
15013;DHT22;7603;49.432;11.418;2023-03-01T09:04:20;9.70;83.30
15013;DHT22;7603;49.432;11.418;2023-03-01T09:06:49;10.40;80.20
15013;DHT22;7603;49.432;11.418;2023-03-01T09:09:16;10.90;72.90
15013;DHT22;7603;49.432;11.418;2023-03-01T09:11:43;11.20;66.60
15013;DHT22;7603;49.432;11.418;2023-03-01T09:14:11;11.40;64.20
15013;DHT22;7603;49.432;11.418;2023-03-01T09:16:37;11.70;61.60
15013;DHT22;7603;49.432;11.418;2023-03-01T09:19:04;11.70;61.90
15013;DHT22;7603;49.432;11.418;2023-03-01T09:21:29;11.70;59.90
15013;DHT22;7603;49.432;11.418;2023-03-01T09:23:57;12.10;60.30
15013;DHT22;7603;49.432;11.418;2023-03-01T09:26:23;12.50;59.00
15013;DHT22;7603;49.432;11.418;2023-03-01T09:28:53;13.10;58.40
15013;DHT22;7603;49.432;11.418;2023-03-01T09:31:20;13.60;55.10
15013;DHT22;7603;49.432;11.418;2023-03-01T09:33:47;14.00;54.10
15013;DHT22;7603;49.432;11.418;2023-03-01T09:36:18;14.20;52.30
15013;DHT22;7603;49.432;11.418;2023-03-01T09:38:45;14.30;51.60
15013;DHT22;7603;49.432;11.418;2023-03-01T09:44:10;15.20;48.70
15013;DHT22;7603;49.432;11.418;2023-03-01T09:46:42;15.70;47.70
15013;DHT22;7603;49.432;11.418;2023-03-01T09:49:23;16.00;46.40
15013;DHT22;7603;49.432;11.418;2023-03-01T09:52:17;16.30;46.10
15013;DHT22;7603;49.432;11.418;2023-03-01T09:54:45;16.70;44.90
15013;DHT22;7603;49.432;11.418;2023-03-01T09:59:55;18.00;43.60
15013;DHT22;7603;49.432;11.418;2023-03-01T10:02:42;18.60;42.70
15013;DHT22;7603;49.432;11.418;2023-03-01T10:10:36;19.90;38.00
15013;DHT22;7603;49.432;11.418;2023-03-01T10:13:10;20.20;37.40
15013;DHT22;7603;49.432;11.418;2023-03-01T10:15:44;20.60;37.60
15013;DHT22;7603;49.432;11.418;2023-03-01T10:18:16;21.00;35.90
15013;DHT22;7603;49.432;11.418;2023-03-01T10:23:19;22.00;33.80
15013;DHT22;7603;49.432;11.418;2023-03-01T10:29:02;22.30;33.00
15013;DHT22;7603;49.432;11.418;2023-03-01T10:31:46;22.60;31.90
15013;DHT22;7603;49.432;11.418;2023-03-01T10:34:21;23.00;31.70
15013;DHT22;7603;49.432;11.418;2023-03-01T10:36:50;23.40;31.40
15013;DHT22;7603;49.432;11.418;2023-03-01T10:39:19;23.70;30.70
15013;DHT22;7603;49.432;11.418;2023-03-01T10:42:05;23.80;29.20
15013;DHT22;7603;49.432;11.418;2023-03-01T10:44:45;23.90;29.40
15013;DHT22;7603;49.432;11.418;2023-03-01T10:47:25;24.00;30.10
15013;DHT22;7603;49.432;11.418;2023-03-01T10:49:54;24.10;27.90
15013;DHT22;7603;49.432;11.418;2023-03-01T10:52:23;24.30;29.10
15013;DHT22;7603;49.432;11.418;2023-03-01T10:54:55;24.50;28.00
15013;DHT22;7603;49.432;11.418;2023-03-01T10:57:29;24.60;28.50
15013;DHT22;7603;49.432;11.418;2023-03-01T11:02:41;25.00;28.10
15013;DHT22;7603;49.432;11.418;2023-03-01T11:07:58;25.30;26.30
15013;DHT22;7603;49.432;11.418;2023-03-01T11:10:33;25.20;26.10
15013;DHT22;7603;49.432;11.418;2023-03-01T11:15:33;25.50;27.10
15013;DHT22;7603;49.432;11.418;2023-03-01T11:18:00;25.70;26.70
15013;DHT22;7603;49.432;11.418;2023-03-01T11:20:32;26.00;26.80
15013;DHT22;7603;49.432;11.418;2023-03-01T11:23:02;26.50;26.00
15013;DHT22;7603;49.432;11.418;2023-03-01T11:25:33;26.80;26.10
15013;DHT22;7603;49.432;11.418;2023-03-01T11:28:02;27.20;26.10
15013;DHT22;7603;49.432;11.418;2023-03-01T11:30:56;27.80;25.70
15013;DHT22;7603;49.432;11.418;2023-03-01T11:38:46;28.90;24.00
15013;DHT22;7603;49.432;11.418;2023-03-01T11:41:19;29.20;24.30
15013;DHT22;7603;49.432;11.418;2023-03-01T11:44:14;29.50;23.50
15013;DHT22;7603;49.432;11.418;2023-03-01T11:46:56;29.40;22.90
15013;DHT22;7603;49.432;11.418;2023-03-01T11:49:44;29.30;23.70
15013;DHT22;7603;49.432;11.418;2023-03-01T11:55:25;29.80;23.00
15013;DHT22;7603;49.432;11.418;2023-03-01T12:03:33;30.60;22.40
15013;DHT22;7603;49.432;11.418;2023-03-01T12:12:01;29.70;22.80
15013;DHT22;7603;49.432;11.418;2023-03-01T12:17:14;30.10;23.10
15013;DHT22;7603;49.432;11.418;2023-03-01T12:25:08;30.60;22.40
15013;DHT22;7603;49.432;11.418;2023-03-01T12:28:08;30.70;22.80
15013;DHT22;7603;49.432;11.418;2023-03-01T12:31:08;31.00;22.20
15013;DHT22;7603;49.432;11.418;2023-03-01T12:33:53;31.10;22.20
15013;DHT22;7603;49.432;11.418;2023-03-01T12:50:18;32.60;22.00
15013;DHT22;7603;49.432;11.418;2023-03-01T12:52:53;32.50;21.80
15013;DHT22;7603;49.432;11.418;2023-03-01T12:58:28;33.00;21.50
15013;DHT22;7603;49.432;11.418;2023-03-01T13:09:28;33.20;21.50
15013;DHT22;7603;49.432;11.418;2023-03-01T13:11:56;33.30;21.50
15013;DHT22;7603;49.432;11.418;2023-03-01T13:16:52;33.00;21.70
15013;DHT22;7603;49.432;11.418;2023-03-01T13:19:19;33.00;21.50
15013;DHT22;7603;49.432;11.418;2023-03-01T13:21:47;32.90;21.20
15013;DHT22;7603;49.432;11.418;2023-03-01T13:24:48;32.80;21.70
15013;DHT22;7603;49.432;11.418;2023-03-01T13:27:25;33.00;21.10
15013;DHT22;7603;49.432;11.418;2023-03-01T13:29:56;33.00;21.60
15013;DHT22;7603;49.432;11.418;2023-03-01T13:32:32;33.00;21.70
15013;DHT22;7603;49.432;11.418;2023-03-01T13:37:27;33.70;21.30
15013;DHT22;7603;49.432;11.418;2023-03-01T13:39:59;33.50;21.20
15013;DHT22;7603;49.432;11.418;2023-03-01T13:42:41;33.30;21.50
15013;DHT22;7603;49.432;11.418;2023-03-01T13:47:56;33.10;21.00
15013;DHT22;7603;49.432;11.418;2023-03-01T13:50:26;33.00;21.50
15013;DHT22;7603;49.432;11.418;2023-03-01T13:52:59;33.10;21.60
15013;DHT22;7603;49.432;11.418;2023-03-01T13:55:42;33.20;21.40
15013;DHT22;7603;49.432;11.418;2023-03-01T13:58:33;33.00;21.10
15013;DHT22;7603;49.432;11.418;2023-03-01T14:01:04;32.90;21.20
15013;DHT22;7603;49.432;11.418;2023-03-01T14:03:32;32.60;21.30
15013;DHT22;7603;49.432;11.418;2023-03-01T14:06:16;32.20;21.10
15013;DHT22;7603;49.432;11.418;2023-03-01T14:08:45;31.80;21.60
15013;DHT22;7603;49.432;11.418;2023-03-01T14:17:10;30.90;22.20
15013;DHT22;7603;49.432;11.418;2023-03-01T14:19:39;30.90;22.40
15013;DHT22;7603;49.432;11.418;2023-03-01T14:22:37;30.90;22.10
15013;DHT22;7603;49.432;11.418;2023-03-01T14:27:42;29.30;23.00
15013;DHT22;7603;49.432;11.418;2023-03-01T14:30:14;29.20;23.20
15013;DHT22;7603;49.432;11.418;2023-03-01T14:32:42;29.10;23.40
15013;DHT22;7603;49.432;11.418;2023-03-01T14:35:23;29.50;23.60
15013;DHT22;7603;49.432;11.418;2023-03-01T14:37:49;29.40;23.30
15013;DHT22;7603;49.432;11.418;2023-03-01T14:40:28;29.40;23.60
15013;DHT22;7603;49.432;11.418;2023-03-01T14:42:57;29.60;23.40
15013;DHT22;7603;49.432;11.418;2023-03-01T14:45:27;29.50;23.30
15013;DHT22;7603;49.432;11.418;2023-03-01T14:47:55;29.30;23.20
15013;DHT22;7603;49.432;11.418;2023-03-01T14:50:31;28.90;23.50
15013;DHT22;7603;49.432;11.418;2023-03-01T14:53:03;28.90;23.70
15013;DHT22;7603;49.432;11.418;2023-03-01T14:55:33;28.80;23.70
15013;DHT22;7603;49.432;11.418;2023-03-01T14:58:03;28.70;23.70
15013;DHT22;7603;49.432;11.418;2023-03-01T15:00:31;28.00;23.90
15013;DHT22;7603;49.432;11.418;2023-03-01T15:03:04;27.80;24.50
15013;DHT22;7603;49.432;11.418;2023-03-01T15:05:35;27.80;24.50
15013;DHT22;7603;49.432;11.418;2023-03-01T15:08:02;28.20;24.50
15013;DHT22;7603;49.432;11.418;2023-03-01T15:10:32;28.30;24.30
15013;DHT22;7603;49.432;11.418;2023-03-01T15:13:24;28.30;24.40
15013;DHT22;7603;49.432;11.418;2023-03-01T15:15:51;28.10;23.90
15013;DHT22;7603;49.432;11.418;2023-03-01T15:18:29;27.70;24.40
15013;DHT22;7603;49.432;11.418;2023-03-01T15:20:56;27.40;24.80
15013;DHT22;7603;49.432;11.418;2023-03-01T15:23:30;27.40;24.70
15013;DHT22;7603;49.432;11.418;2023-03-01T15:25:57;27.40;24.80
15013;DHT22;7603;49.432;11.418;2023-03-01T15:28:31;27.60;24.80
15013;DHT22;7603;49.432;11.418;2023-03-01T15:31:17;27.70;24.60
15013;DHT22;7603;49.432;11.418;2023-03-01T15:33:44;27.60;24.60
15013;DHT22;7603;49.432;11.418;2023-03-01T15:39:00;27.50;24.70
15013;DHT22;7603;49.432;11.418;2023-03-01T15:41:29;26.80;25.00
15013;DHT22;7603;49.432;11.418;2023-03-01T15:43:59;26.30;25.60
15013;DHT22;7603;49.432;11.418;2023-03-01T15:46:33;26.00;25.70
15013;DHT22;7603;49.432;11.418;2023-03-01T15:49:04;25.80;25.90
15013;DHT22;7603;49.432;11.418;2023-03-01T15:51:35;25.60;26.00
15013;DHT22;7603;49.432;11.418;2023-03-01T15:54:18;25.30;26.30
15013;DHT22;7603;49.432;11.418;2023-03-01T15:56:45;25.00;26.70
15013;DHT22;7603;49.432;11.418;2023-03-01T15:59:12;24.50;26.80
15013;DHT22;7603;49.432;11.418;2023-03-01T16:01:42;23.70;27.30
15013;DHT22;7603;49.432;11.418;2023-03-01T16:04:10;23.00;27.90
15013;DHT22;7603;49.432;11.418;2023-03-01T16:06:38;22.30;28.70
15013;DHT22;7603;49.432;11.418;2023-03-01T16:09:04;21.70;29.20
15013;DHT22;7603;49.432;11.418;2023-03-01T16:11:30;21.20;29.80
15013;DHT22;7603;49.432;11.418;2023-03-01T16:13:57;20.60;30.20
15013;DHT22;7603;49.432;11.418;2023-03-01T16:16:23;19.70;31.10
15013;DHT22;7603;49.432;11.418;2023-03-01T16:18:48;18.60;32.80
15013;DHT22;7603;49.432;11.418;2023-03-01T16:21:18;17.30;34.10
15013;DHT22;7603;49.432;11.418;2023-03-01T16:23:44;16.20;36.20
15013;DHT22;7603;49.432;11.418;2023-03-01T16:26:10;15.20;38.20
15013;DHT22;7603;49.432;11.418;2023-03-01T16:28:36;14.10;40.50
15013;DHT22;7603;49.432;11.418;2023-03-01T16:31:02;13.20;41.50
15013;DHT22;7603;49.432;11.418;2023-03-01T16:33:27;12.40;43.80
15013;DHT22;7603;49.432;11.418;2023-03-01T16:35:53;11.70;45.70
15013;DHT22;7603;49.432;11.418;2023-03-01T16:38:19;11.10;46.90
15013;DHT22;7603;49.432;11.418;2023-03-01T16:40:49;10.60;48.50
15013;DHT22;7603;49.432;11.418;2023-03-01T16:43:15;10.20;49.80
15013;DHT22;7603;49.432;11.418;2023-03-01T16:45:40;9.70;51.40
15013;DHT22;7603;49.432;11.418;2023-03-01T16:48:10;9.20;52.70
15013;DHT22;7603;49.432;11.418;2023-03-01T16:50:36;8.80;54.50
15013;DHT22;7603;49.432;11.418;2023-03-01T16:53:02;8.40;55.60
15013;DHT22;7603;49.432;11.418;2023-03-01T16:55:27;8.10;56.50
15013;DHT22;7603;49.432;11.418;2023-03-01T16:57:53;7.80;57.40
15013;DHT22;7603;49.432;11.418;2023-03-01T17:00:19;7.60;56.90
15013;DHT22;7603;49.432;11.418;2023-03-01T17:02:45;7.30;59.10
15013;DHT22;7603;49.432;11.418;2023-03-01T17:05:10;7.10;59.70
15013;DHT22;7603;49.432;11.418;2023-03-01T17:07:37;6.90;61.10
15013;DHT22;7603;49.432;11.418;2023-03-01T17:10:05;6.70;63.40
15013;DHT22;7603;49.432;11.418;2023-03-01T17:12:31;6.40;63.60
15013;DHT22;7603;49.432;11.418;2023-03-01T17:14:58;6.20;65.30
15013;DHT22;7603;49.432;11.418;2023-03-01T17:17:23;6.00;65.80
15013;DHT22;7603;49.432;11.418;2023-03-01T17:19:49;5.90;67.10
15013;DHT22;7603;49.432;11.418;2023-03-01T17:22:15;5.70;68.60
15013;DHT22;7603;49.432;11.418;2023-03-01T17:24:42;5.60;69.30
15013;DHT22;7603;49.432;11.418;2023-03-01T17:27:08;5.50;70.60
15013;DHT22;7603;49.432;11.418;2023-03-01T17:29:34;5.40;70.70
15013;DHT22;7603;49.432;11.418;2023-03-01T17:32:00;5.20;72.20
15013;DHT22;7603;49.432;11.418;2023-03-01T17:34:26;5.20;73.80
15013;DHT22;7603;49.432;11.418;2023-03-01T17:36:52;5.00;74.60